Time,TemperatureF,DewpointF,PressureIn,WindDirection,WindDirectionDegrees,WindSpeedMPH,WindSpeedGustMPH,Humidity,HourlyPrecipIn,Conditions,Clouds,dailyrainin,SoftwareType,DateUTC
2013-09-12 00:10:00,71.5,68.0,29.97,SSW,192,0.0,-999.0,88,-99.99,,,0.00,weatherlink.com 1.10,2013-09-12 04:10:00,
2013-09-12 00:25:00,71.3,68.0,29.97,SSW,194,1.0,-999.0,88,-99.99,,,0.00,weatherlink.com 1.10,2013-09-12 04:25:00,
2013-09-12 00:41:00,71.1,67.0,29.96,SSW,201,3.0,-999.0,88,-99.99,,,0.00,weatherlink.com 1.10,2013-09-12 04:41:00,
2013-09-12 00:56:00,71.0,68.0,29.95,SSW,194,0.0,-999.0,89,-99.99,,,0.00,weatherlink.com 1.10,2013-09-12 04:56:00,
2013-09-12 01:11:00,70.8,68.0,29.94,SSW,202,0.0,-999.0,89,-99.99,,,0.00,weatherlink.com 1.10,2013-09-12 05:11:00,
2013-09-12 01:26:00,70.8,68.0,29.95,SW,217,0.0,-999.0,89,-99.99,,,0.00,weatherlink.com 1.10,2013-09-12 05:26:00,
2013-09-12 01:41:00,70.7,67.0,29.94,SSW,213,0.0,-999.0,89,-99.99,,,0.00,weatherlink.com 1.10,2013-09-12 05:41:00,
2013-09-12 01:56:00,70.6,68.0,29.94,SSW,196,1.0,-999.0,90,-99.99,,,0.00,weatherlink.com 1.10,2013-09-12 05:56:00,
2013-09-12 02:11:00,70.5,68.0,29.94,SSW,196,0.0,-999.0,90,-99.99,,,0.00,weatherlink.com 1.10,2013-09-12 06:11:00,
2013-09-12 02:26:00,70.3,67.0,29.93,South,178,0.0,-999.0,90,-99.99,,,0.00,weatherlink.com 1.10,2013-09-12 06:26:00,
2013-09-12 02:41:00,70.1,67.0,29.93,South,191,0.0,-999.0,90,-99.99,,,0.00,weatherlink.com 1.10,2013-09-12 06:41:00,
2013-09-12 02:56:00,70.1,67.0,29.93,South,190,0.0,-999.0,90,-99.99,,,0.00,weatherlink.com 1.10,2013-09-12 06:56:00,
2013-09-12 03:11:00,69.8,67.0,29.92,South,190,0.0,-999.0,90,-99.99,,,0.00,weatherlink.com 1.10,2013-09-12 07:11:00,
2013-09-12 03:26:00,69.7,67.0,29.92,SSW,204,0.0,-999.0,90,-99.99,,,0.00,weatherlink.com 1.10,2013-09-12 07:26:00,
2013-09-12 03:41:00,69.6,67.0,29.92,SSW,197,0.0,-999.0,90,-99.99,,,0.00,weatherlink.com 1.10,2013-09-12 07:41:00,
2013-09-12 03:56:00,69.5,67.0,29.92,SSW,206,4.0,-999.0,91,-99.99,,,0.00,weatherlink.com 1.10,2013-09-12 07:56:00,
2013-09-12 04:11:00,69.7,67.0,29.92,SSW,207,0.0,-999.0,91,-99.99,,,0.00,weatherlink.com 1.10,2013-09-12 08:11:00,
2013-09-12 04:26:00,69.7,67.0,29.93,SSW,195,0.0,-999.0,91,-99.99,,,0.00,weatherlink.com 1.10,2013-09-12 08:26:00,
2013-09-12 04:41:00,69.6,67.0,29.92,SSW,203,0.0,-999.0,91,-99.99,,,0.00,weatherlink.com 1.10,2013-09-12 08:41:00,
2013-09-12 04:56:00,69.4,67.0,29.93,SSW,207,0.0,-999.0,91,-99.99,,,0.00,weatherlink.com 1.10,2013-09-12 08:56:00,
2013-09-12 05:11:00,69.6,67.0,29.92,SSW,211,3.0,-999.0,91,-99.99,,,0.00,weatherlink.com 1.10,2013-09-12 09:11:00,
2013-09-12 05:26:00,69.8,67.0,29.93,West,261,6.0,-999.0,91,-99.99,,,0.00,weatherlink.com 1.10,2013-09-12 09:26:00,
2013-09-12 05:41:00,69.9,67.0,29.92,South,191,2.0,-999.0,91,-99.99,,,0.00,weatherlink.com 1.10,2013-09-12 09:41:00,
2013-09-12 05:56:00,69.9,67.0,29.92,WSW,241,3.0,-999.0,91,-99.99,,,0.00,weatherlink.com 1.10,2013-09-12 09:56:00,
2013-09-12 06:11:00,69.8,67.0,29.92,SSW,197,6.0,-999.0,92,-99.99,,,0.00,weatherlink.com 1.10,2013-09-12 10:11:00,
2013-09-12 06:26:00,69.9,68.0,29.92,West,268,3.0,-999.0,92,-99.99,,,0.00,weatherlink.com 1.10,2013-09-12 10:26:00,
2013-09-12 06:41:00,69.9,68.0,29.92,WSW,241,0.0,-999.0,92,-99.99,,,0.00,weatherlink.com 1.10,2013-09-12 10:41:00,
2013-09-12 06:56:00,69.9,68.0,29.92,SW,224,0.0,-999.0,92,-99.99,,,0.00,weatherlink.com 1.10,2013-09-12 10:56:00,
2013-09-12 07:11:00,70.0,68.0,29.91,SSW,213,0.0,-999.0,92,-99.99,,,0.00,weatherlink.com 1.10,2013-09-12 11:11:00,
2013-09-12 07:26:00,70.2,68.0,29.92,SSW,201,2.0,-999.0,92,-99.99,,,0.00,weatherlink.com 1.10,2013-09-12 11:26:00,
2013-09-12 07:41:00,70.4,68.0,29.92,South,182,0.0,-999.0,92,-99.99,,,0.00,weatherlink.com 1.10,2013-09-12 11:41:00,
2013-09-12 07:56:00,70.6,68.0,29.91,SSW,203,5.0,-999.0,92,-99.99,,,0.00,weatherlink.com 1.10,2013-09-12 11:56:00,
2013-09-12 08:11:00,70.8,68.0,29.91,SSW,196,3.0,-999.0,92,-99.99,,,0.00,weatherlink.com 1.10,2013-09-12 12:11:00,
2013-09-12 08:26:00,71.2,69.0,29.90,South,188,0.0,-999.0,92,-99.99,,,0.00,weatherlink.com 1.10,2013-09-12 12:26:00,
2013-09-12 08:41:00,71.5,69.0,29.90,WSW,247,1.0,-999.0,92,-99.99,,,0.00,weatherlink.com 1.10,2013-09-12 12:41:00,
2013-09-12 08:56:00,72.2,70.0,29.90,SSW,203,5.0,-999.0,92,-99.99,,,0.00,weatherlink.com 1.10,2013-09-12 12:56:00,
2013-09-12 09:11:00,73.4,71.0,29.90,SSW,199,3.0,-999.0,92,-99.99,,,0.00,weatherlink.com 1.10,2013-09-12 13:11:00,
2013-09-12 09:26:00,74.4,71.0,29.89,SSW,199,9.0,-999.0,89,-99.99,,,0.00,weatherlink.com 1.10,2013-09-12 13:26:00,
2013-09-12 09:41:00,75.3,71.0,29.89,SW,231,2.0,-999.0,87,-99.99,,,0.00,weatherlink.com 1.10,2013-09-12 13:41:00,
2013-09-12 09:56:00,75.8,71.0,29.89,WNW,286,7.0,-999.0,84,-99.99,,,0.00,weatherlink.com 1.10,2013-09-12 13:56:00,
2013-09-12 10:11:00,75.7,71.0,29.88,SSW,192,9.0,-999.0,84,-99.99,,,0.00,weatherlink.com 1.10,2013-09-12 14:11:00,
2013-09-12 10:26:00,76.1,71.0,29.88,SSW,194,5.0,-999.0,84,-99.99,,,0.00,weatherlink.com 1.10,2013-09-12 14:26:00,
2013-09-12 10:41:00,77.0,71.0,29.88,SSW,192,5.0,-999.0,82,-99.99,,,0.00,weatherlink.com 1.10,2013-09-12 14:41:00,
2013-09-12 10:56:00,77.7,71.0,29.87,West,271,0.0,-999.0,81,-99.99,,,0.00,weatherlink.com 1.10,2013-09-12 14:56:00,
2013-09-12 11:11:00,78.0,71.0,29.87,SSW,195,9.0,-999.0,80,-99.99,,,0.00,weatherlink.com 1.10,2013-09-12 15:11:00,
2013-09-12 11:26:00,78.1,72.0,29.86,WSW,252,1.0,-999.0,80,-99.99,,,0.00,weatherlink.com 1.10,2013-09-12 15:26:00,
2013-09-12 11:42:00,78.3,72.0,29.86,SW,224,5.0,-999.0,80,-99.99,,,0.00,weatherlink.com 1.10,2013-09-12 15:42:00,
2013-09-12 11:57:00,78.6,72.0,29.86,West,259,9.0,-999.0,79,-99.99,,,0.00,weatherlink.com 1.10,2013-09-12 15:57:00,
2013-09-12 12:12:00,78.3,71.0,29.85,WSW,253,10.0,-999.0,79,-99.99,,,0.00,weatherlink.com 1.10,2013-09-12 16:12:00,
2013-09-12 12:27:00,78.0,71.0,29.86,SSW,213,4.0,-999.0,79,-99.99,,,0.00,weatherlink.com 1.10,2013-09-12 16:27:00,
2013-09-12 12:42:00,78.2,72.0,29.85,WNW,302,4.0,-999.0,80,-99.99,,,0.00,weatherlink.com 1.10,2013-09-12 16:42:00,
2013-09-12 12:57:00,78.6,72.0,29.84,South,184,15.0,-999.0,79,-99.99,,,0.00,weatherlink.com 1.10,2013-09-12 16:57:00,
2013-09-12 13:12:00,79.2,72.0,29.83,NW,307,3.0,-999.0,79,-99.99,,,0.00,weatherlink.com 1.10,2013-09-12 17:12:00,
2013-09-12 13:27:00,79.8,72.0,29.82,North,350,1.0,-999.0,77,-99.99,,,0.00,weatherlink.com 1.10,2013-09-12 17:27:00,
2013-09-12 13:42:00,80.2,72.0,29.82,SSW,205,4.0,-999.0,77,-99.99,,,0.00,weatherlink.com 1.10,2013-09-12 17:42:00,
2013-09-12 13:57:00,80.8,72.0,29.81,SW,225,4.0,-999.0,75,-99.99,,,0.00,weatherlink.com 1.10,2013-09-12 17:57:00,
2013-09-12 14:12:00,80.8,72.0,29.82,SW,236,6.0,-999.0,75,-99.99,,,0.00,weatherlink.com 1.10,2013-09-12 18:12:00,
2013-09-12 14:27:00,79.8,72.0,29.80,SSW,193,10.0,-999.0,76,-99.99,,,0.00,weatherlink.com 1.10,2013-09-12 18:27:00,
2013-09-12 14:42:00,78.7,71.0,29.80,SSW,212,1.0,-999.0,78,-99.99,,,0.00,weatherlink.com 1.10,2013-09-12 18:42:00,
2013-09-12 14:57:00,78.7,72.0,29.79,WNW,284,8.0,-999.0,79,-99.99,,,0.00,weatherlink.com 1.10,2013-09-12 18:57:00,
2013-09-12 15:12:00,78.5,72.0,29.79,West,269,5.0,-999.0,79,-99.99,,,0.00,weatherlink.com 1.10,2013-09-12 19:12:00,
2013-09-12 15:27:00,78.7,72.0,29.78,West,270,6.0,-999.0,79,-99.99,,,0.00,weatherlink.com 1.10,2013-09-12 19:27:00,
2013-09-12 15:42:00,78.0,71.0,29.78,SSW,207,3.0,-999.0,78,-99.99,,,0.00,weatherlink.com 1.10,2013-09-12 19:42:00,
2013-09-12 15:57:00,77.0,70.0,29.77,SW,214,2.0,-999.0,79,-99.99,,,0.00,weatherlink.com 1.10,2013-09-12 19:57:00,
2013-09-12 16:12:00,76.6,70.0,29.77,SW,217,1.0,-999.0,81,-99.99,,,0.00,weatherlink.com 1.10,2013-09-12 20:12:00,
2013-09-12 16:27:00,76.2,70.0,29.76,South,169,2.0,-999.0,82,-99.99,,,0.00,weatherlink.com 1.10,2013-09-12 20:27:00,
2013-09-12 16:42:00,75.8,70.0,29.76,WSW,247,2.0,-999.0,82,-99.99,,,0.00,weatherlink.com 1.10,2013-09-12 20:42:00,
2013-09-12 16:57:00,75.2,70.0,29.75,SW,221,0.0,-999.0,83,-99.99,,,0.00,weatherlink.com 1.10,2013-09-12 20:57:00,
2013-09-12 17:12:00,74.8,70.0,29.75,West,280,0.0,-999.0,84,-99.99,,,0.00,weatherlink.com 1.10,2013-09-12 21:12:00,
2013-09-12 17:27:00,74.3,70.0,29.74,SSW,209,5.0,-999.0,85,-99.99,,,0.00,weatherlink.com 1.10,2013-09-12 21:27:00,
2013-09-12 17:42:00,73.9,69.0,29.75,NW,324,1.0,-999.0,85,-99.99,,,0.00,weatherlink.com 1.10,2013-09-12 21:42:00,
2013-09-12 17:57:00,73.5,69.0,29.75,South,188,10.0,-999.0,86,-99.99,,,0.00,weatherlink.com 1.10,2013-09-12 21:57:00,
2013-09-12 18:12:00,73.1,69.0,29.75,WSW,242,3.0,-999.0,86,-99.99,,,0.00,weatherlink.com 1.10,2013-09-12 22:12:00,
2013-09-12 18:27:00,72.8,69.0,29.74,WSW,257,4.0,-999.0,87,-99.99,,,0.00,weatherlink.com 1.10,2013-09-12 22:27:00,
2013-09-12 18:42:00,72.5,69.0,29.73,WSW,239,2.0,-999.0,87,-99.99,,,0.00,weatherlink.com 1.10,2013-09-12 22:42:00,
2013-09-12 18:57:00,72.4,68.0,29.72,WSW,247,5.0,-999.0,87,-99.99,,,0.00,weatherlink.com 1.10,2013-09-12 22:57:00,
2013-09-12 19:12:00,72.2,69.0,29.72,South,180,10.0,-999.0,88,-99.99,,,0.00,weatherlink.com 1.10,2013-09-12 23:12:00,
2013-09-12 19:27:00,72.1,68.0,29.72,WSW,238,11.0,-999.0,88,-99.99,,,0.00,weatherlink.com 1.10,2013-09-12 23:27:00,
2013-09-12 19:42:00,72.0,68.0,29.73,South,190,0.0,-999.0,88,-99.99,,,0.00,weatherlink.com 1.10,2013-09-12 23:42:00,
2013-09-12 19:57:00,71.9,68.0,29.73,WSW,249,2.0,-999.0,88,-99.99,,,0.00,weatherlink.com 1.10,2013-09-12 23:57:00,
2013-09-12 20:12:00,71.9,68.0,29.72,NW,310,7.0,-999.0,88,-99.99,,,0.00,weatherlink.com 1.10,2013-09-13 00:12:00,
2013-09-12 20:27:00,71.9,68.0,29.72,SW,229,4.0,-999.0,88,-99.99,,,0.00,weatherlink.com 1.10,2013-09-13 00:27:00,
2013-09-12 20:42:00,71.8,68.0,29.73,SSW,209,0.0,-999.0,88,-99.99,,,0.00,weatherlink.com 1.10,2013-09-13 00:42:00,
2013-09-12 20:57:00,71.8,68.0,29.72,SSW,203,1.0,-999.0,88,-99.99,,,0.00,weatherlink.com 1.10,2013-09-13 00:57:00,
2013-09-12 21:12:00,71.7,68.0,29.71,SW,235,0.0,-999.0,89,-99.99,,,0.00,weatherlink.com 1.10,2013-09-13 01:12:00,
2013-09-12 21:27:00,71.7,68.0,29.71,WSW,251,0.0,-999.0,89,-99.99,,,0.00,weatherlink.com 1.10,2013-09-13 01:27:00,
2013-09-12 21:42:00,71.6,68.0,29.71,SW,218,6.0,-999.0,89,-99.99,,,0.00,weatherlink.com 1.10,2013-09-13 01:42:00,
2013-09-12 21:57:00,71.5,68.0,29.70,WSW,241,6.0,-999.0,89,-99.99,,,0.00,weatherlink.com 1.10,2013-09-13 01:57:00,
2013-09-12 22:12:00,71.4,68.0,29.70,WSW,249,0.0,-999.0,89,-99.99,,,0.00,weatherlink.com 1.10,2013-09-13 02:12:00,
2013-09-12 22:27:00,71.3,68.0,29.71,SW,226,4.0,-999.0,88,-99.99,,,0.00,weatherlink.com 1.10,2013-09-13 02:27:00,
2013-09-12 22:42:00,71.3,68.0,29.70,SW,234,6.0,-999.0,88,-99.99,,,0.00,weatherlink.com 1.10,2013-09-13 02:42:00,
2013-09-12 22:57:00,71.2,68.0,29.70,West,268,3.0,-999.0,88,-99.99,,,0.00,weatherlink.com 1.10,2013-09-13 02:57:00,
2013-09-12 23:12:00,71.0,68.0,29.71,SW,220,0.0,-999.0,89,-99.99,,,0.01,weatherlink.com 1.10,2013-09-13 03:12:00,
2013-09-12 23:27:00,70.8,68.0,29.69,SW,223,2.0,-999.0,89,-99.99,,,0.10,weatherlink.com 1.10,2013-09-13 03:27:00,
2013-09-12 23:42:00,70.6,67.0,29.69,SW,214,0.0,-999.0,89,-99.99,,,0.16,weatherlink.com 1.10,2013-09-13 03:42:00,
2013-09-12 23:57:00,70.4,67.0,29.67,WSW,238,1.0,-999.0,90,-99.99,,,0.23,weatherlink.com 1.10,2013-09-13 03:57:00,